• Join FlightAware (Why Join?)
  • Login
  • US Flag 
11:30PM EDT


 

Airport Tracker/Info


-or-


 

Live Flight TrackerFlight Track Log ✈ UAL1208 ✈ 03-Jul-2013 ✈ KIAH - KLAS

Flight Track Log - Related Links

Times and Time Zones

All times are in EDT time to prevent confusion due to time zone crossing. See the UAL1208 flight status page for this flight to view local times or setup timezone preferences in your user account.

Time Position Orientation Groundspeed Altitude Reporting Facility
EDT Latitude Longitude Course Direction KTS MPH feet Rate Location/Type
07:43AM 29.9594 -95.3414 261° West 161 185 800  Level Houston Center
07:44AM 29.9506 -95.4053 261° West 250 288 4,300 3,000 Climbing Houston Center
07:46AM 30.0258 -95.4767 321° Northwest 277 319 9,500 3,180 Climbing Houston Center
07:47AM 30.1061 -95.5033 344° North 295 339 12,100 3,000 Climbing Houston Center
07:48AM 30.1978 -95.5358 343° North 332 382 15,700 3,120 Climbing Houston Center
07:49AM 30.2942 -95.5700 343° North 352 405 18,500 2,760 Climbing Houston Center
07:50AM 30.3961 -95.6039 344° North 373 429 21,400 2,880 Climbing Houston Center
07:51AM 30.5233 -95.6456 344° North 391 450 24,400 2,520 Climbing Houston Center
07:52AM 30.6256 -95.7011 335° Northwest 408 470 26,600 2,040 Climbing Houston Center
07:53AM 30.7364 -95.7608 335° Northwest 422 486 28,700 1,980 Climbing Houston Center
07:54AM 30.8464 -95.8183 336° Northwest 431 496 30,700 1,860 Climbing Houston Center
07:55AM 30.9572 -95.8783 335° Northwest 435 501 32,600 1,800 Climbing Houston Center
07:56AM 31.0686 -95.9381 335° Northwest 438 504 34,400 1,860 Climbing Houston Center
07:57AM 31.1803 -95.9903 338° Northwest 433 498 36,400 1,680 Climbing Houston Center
07:58AM 31.2919 -96.0325 342° North 423 487 37,900 780 Climbing Houston Center
07:59AM 31.4039 -96.0753 342° North 421 484 38,000  Climbing Houston Center
08:00AM 31.5119 -96.1167 342° North 419 482 38,000  Level Houston Center
08:01AM 31.6242 -96.1608 341° North 420 483 38,000  Level Houston Center
08:02AM 31.7353 -96.2050 341° North 419 482 38,000  Level Houston Center
08:03AM 31.8700 -96.2611 341° North 416 479 38,000  Level Fort Worth Center
08:04AM 31.9831 -96.3039 342° North 411 473 38,000  Level Fort Worth Center
08:05AM 32.0939 -96.3467 342° North 411 473 38,000  Level Fort Worth Center
08:06AM 32.1989 -96.4019 336° Northwest 411 473 38,000  Level Fort Worth Center
08:07AM 32.2853 -96.4942 318° Northwest 410 472 38,000  Level Fort Worth Center
08:08AM 32.3694 -96.5894 316° Northwest 415 478 38,000  Level Fort Worth Center
08:09AM 32.4514 -96.6822 316° Northwest 415 478 38,000  Level Fort Worth Center
08:10AM 32.5375 -96.7775 317° Northwest 415 478 38,000  Level Fort Worth Center
08:11AM 32.6025 -96.8536 315° West 415 478 38,000  Level Fort Worth Center
08:12AM 32.6928 -96.9567 316° Northwest 409 471 38,000  Level Fort Worth Center
08:13AM 32.7786 -97.0503 317° Northwest 415 478 38,000  Level Fort Worth Center
08:14AM 32.8708 -97.1586 315° West 415 478 38,000  Level Fort Worth Center
08:15AM 32.9439 -97.2475 314° West 415 478 38,000  Level Fort Worth Center
08:16AM 33.0294 -97.3589 313° West 434 499 38,000  Level Fort Worth Center
08:17AM 33.1047 -97.4531 314° West 434 499 38,000  Level Fort Worth Center
08:18AM 33.1839 -97.5550 313° West 424 488 38,000  Level Fort Worth Center
08:19AM 33.2631 -97.6544 314° West 419 482 38,000  Level Fort Worth Center
08:20AM 33.3506 -97.7667 313° West 419 482 38,000  Level Fort Worth Center
08:21AM 33.4294 -97.8664 313° West 424 488 38,000  Level Fort Worth Center
08:22AM 33.5083 -97.9664 313° West 419 482 38,000  Level Fort Worth Center
08:23AM 33.5894 -98.0692 313° West 419 482 38,000  Level Fort Worth Center
08:24AM 33.6661 -98.1722 312° West 419 482 38,000  Level Fort Worth Center
08:25AM 33.7425 -98.2728 312° West 419 482 38,000  Level Fort Worth Center
08:26AM 33.8211 -98.3711 314° West 419 482 38,000  Level Fort Worth Center
08:27AM 33.8975 -98.4694 313° West 414 476 38,000  Level Fort Worth Center
08:28AM 33.9739 -98.5706 312° West 409 471 38,000  Level Fort Worth Center
08:29AM 34.0164 -98.6939 293° West 398 458 38,000  Level Fort Worth Center
08:30AM 34.0442 -98.8297 284° West 398 458 38,000  Level Fort Worth Center
08:31AM 34.0636 -98.9628 280° West 398 458 38,000 420 Level Fort Worth Center
08:32AM 34.0831 -99.0711 282° West 409 471 38,900 960 Climbing Fort Worth Center
08:33AM 34.1119 -99.2372 282° West 417 480 40,000 540 Climbing Fort Worth Center
08:34AM 34.1350 -99.3756 281° West 417 480 40,000  Level Fort Worth Center
08:35AM 34.1578 -99.5142 281° West 417 480 40,000  Level Fort Worth Center
08:36AM 34.1783 -99.6528 280° West 417 480 40,000  Level Fort Worth Center
08:37AM 34.2028 -99.7942 282° West 422 486 40,000  Level Fort Worth Center
08:38AM 34.2253 -99.9303 281° West 422 486 40,000  Level Fort Worth Center
08:39AM 34.2475 -100.0642 281° West 422 486 40,000  Level Fort Worth Center
08:40AM 34.2694 -100.2056 281° West 422 486 40,000  Level Fort Worth Center
08:41AM 34.2914 -100.3419 281° West 422 486 40,000  Level Fort Worth Center
08:42AM 34.3131 -100.4811 281° West 422 486 40,000  Level Fort Worth Center
08:43AM 34.3347 -100.6175 281° West 422 486 40,000  Level Fort Worth Center
08:44AM 34.3539 -100.7542 280° West 422 486 40,000  Level Fort Worth Center
08:45AM 34.3772 -100.8933 282° West 422 486 40,000  Level Fort Worth Center
08:46AM 34.3928 -101.0028 280° West 415 478 40,000  Level Albuquerque Center
08:47AM 34.4133 -101.1411 280° West 416 479 40,000  Level Albuquerque Center
08:48AM 34.4336 -101.2769 280° West 413 475 40,000  Level Albuquerque Center
08:49AM 34.4539 -101.4136 280° West 411 473 40,000  Level Albuquerque Center
08:50AM 34.4742 -101.5514 280° West 413 475 40,000  Level Albuquerque Center
08:51AM 34.4939 -101.6869 280° West 411 473 40,000  Level Albuquerque Center
08:52AM 34.5136 -101.8228 280° West 409 471 40,000  Level Albuquerque Center
08:53AM 34.5333 -101.9586 280° West 408 470 40,000  Level Albuquerque Center
08:54AM 34.5517 -102.0950 279° West 409 471 40,000  Level Albuquerque Center
08:55AM 34.5717 -102.2317 280° West 410 472 40,000  Level Albuquerque Center
08:56AM 34.5914 -102.3686 280° West 411 473 40,000  Level Albuquerque Center
08:57AM 34.6097 -102.5042 279° West 408 470 40,000  Level Albuquerque Center
08:58AM 34.6292 -102.6425 280° West 413 475 40,000  Level Albuquerque Center
08:59AM 34.6492 -102.7856 280° West 412 474 40,000  Level Albuquerque Center
09:00AM 34.6681 -102.9250 279° West 414 476 40,000  Level Albuquerque Center
09:01AM 34.6853 -103.0633 279° West 412 474 40,000  Level Albuquerque Center
09:02AM 34.7044 -103.2017 280° West 411 473 40,000  Level Albuquerque Center
09:03AM 34.7233 -103.3408 279° West 413 475 40,000  Level Albuquerque Center
09:04AM 34.7419 -103.4822 279° West 418 481 40,000  Level Albuquerque Center
09:05AM 34.7597 -103.6219 279° West 416 479 40,000  Level Albuquerque Center
09:06AM 34.7772 -103.7625 279° West 415 478 40,000  Level Albuquerque Center
09:07AM 34.7958 -103.9033 279° West 416 479 40,000  Level Albuquerque Center
09:08AM 34.8131 -104.0447 278° West 417 480 40,000  Level Albuquerque Center
09:09AM 34.8314 -104.1869 279° West 418 481 40,000  Level Albuquerque Center
09:10AM 34.8478 -104.3308 278° West 421 484 40,000  Level Albuquerque Center
09:11AM 34.8656 -104.4744 279° West 422 486 40,000  Level Albuquerque Center
09:12AM 34.8831 -104.6189 278° West 424 488 40,000  Level Albuquerque Center
09:13AM 34.9014 -104.7633 279° West 426 490 40,000  Level Albuquerque Center
09:14AM 34.9189 -104.9078 278° West 426 490 40,000  Level Albuquerque Center
09:15AM 34.9361 -105.0522 278° West 426 490 40,000  Level Albuquerque Center
09:16AM 34.9531 -105.1975 278° West 428 493 40,000  Level Albuquerque Center
09:17AM 34.9697 -105.3422 278° West 427 491 40,000  Level Albuquerque Center
09:18AM 34.9872 -105.4881 278° West 429 494 40,000  Level Albuquerque Center
09:19AM 35.0042 -105.6336 278° West 430 495 40,000  Level Albuquerque Center
09:20AM 35.0189 -105.7792 277° West 429 494 40,000  Level Albuquerque Center
09:21AM 35.0344 -105.9189 278° West 428 493 40,000  Level Albuquerque Center
09:22AM 35.0489 -106.0617 277° West 427 491 40,000  Level Albuquerque Center
09:23AM 35.0675 -106.2328 278° West 425 489 40,000  Level Albuquerque Center
09:24AM 35.0836 -106.3775 278° West 430 495 40,000  Level Albuquerque Center
09:25AM 35.0989 -106.5222 277° West 432 497 40,000  Level Albuquerque Center
09:26AM 35.1133 -106.6647 277° West 434 499 40,000  Level Albuquerque Center
09:28AM 35.1319 -106.8275 278° West 434 499 40,000  Level Albuquerque Center
09:29AM 35.1444 -106.9678 276° West 434 499 40,000  Level Albuquerque Center
09:30AM 35.1592 -107.1081 277° West 432 497 40,000  Level Albuquerque Center
09:31AM 35.1719 -107.2436 277° West 442 509 40,000  Level Albuquerque Center
09:32AM 35.1889 -107.4219 277° West 443 510 40,000  Level Albuquerque Center
09:33AM 35.2014 -107.5611 276° West 443 510 40,000  Level Albuquerque Center
09:34AM 35.2172 -107.7283 277° West 443 510 40,000  Level Albuquerque Center
09:35AM 35.2306 -107.8728 276° West 445 512 40,000  Level Albuquerque Center
09:36AM 35.2447 -108.0183 277° West 448 516 40,000  Level Albuquerque Center
09:37AM 35.2600 -108.1867 276° West 445 512 40,000  Level Albuquerque Center
09:38AM 35.2731 -108.3319 276° West 446 513 40,000  Level Albuquerque Center
09:39AM 35.2858 -108.4758 276° West 444 511 40,000  Level Albuquerque Center
09:40AM 35.3019 -108.6444 277° West 445 512 40,000  Level Albuquerque Center
09:41AM 35.3133 -108.7886 276° West 443 510 40,000  Level Albuquerque Center
09:42AM 35.3261 -108.9319 276° West 441 507 40,000  Level Albuquerque Center
09:43AM 35.3406 -109.0994 276° West 441 507 40,000  Level Albuquerque Center
09:44AM 35.3525 -109.2428 276° West 439 505 40,000  Level Albuquerque Center
09:45AM 35.3642 -109.3853 276° West 438 504 40,000  Level Albuquerque Center
09:46AM 35.3781 -109.5531 276° West 441 507 40,000  Level Albuquerque Center
09:47AM 35.3886 -109.6939 275° West 437 503 40,000  Level Albuquerque Center
09:48AM 35.4006 -109.8572 275° West 431 496 40,000  Level Albuquerque Center
09:49AM 35.4106 -109.9969 275° West 430 495 40,000  Level Albuquerque Center
09:50AM 35.4192 -110.1386 274° West 433 498 40,000  Level Albuquerque Center
09:51AM 35.4322 -110.3017 276° West 431 496 40,000  Level Albuquerque Center
09:52AM 35.4408 -110.4433 274° West 433 498 40,000  Level Albuquerque Center
09:53AM 35.4503 -110.5822 275° West 430 495 40,000  Level Albuquerque Center
09:54AM 35.4619 -110.7467 275° West 432 497 40,000  Level Albuquerque Center
09:55AM 35.4728 -110.8861 275° West 430 495 40,000 -480 Level Albuquerque Center
09:56AM 35.4825 -111.0469 274° West 426 490 39,100 -1,680 Descending Albuquerque Center
09:57AM 35.4914 -111.1853 275° West 424 488 36,600 -2,700 Descending Albuquerque Center
09:58AM 35.5019 -111.3283 275° West 434 499 33,600 -3,120 Descending Albuquerque Center
09:59AM 35.5117 -111.4867 274° West 454 522 30,300 -1,800 Descending Albuquerque Center
10:00AM 35.5219 -111.6469 275° West 469 540 30,000 -180 Descending Albuquerque Center
10:01AM 35.5333 -111.8383 274° West 472 543 30,000  Level Albuquerque Center
10:02AM 35.5378 -111.9019 275° West 471 542 30,000 -240 Level Los Angeles Center
10:03AM 35.5467 -112.0619 274° West 472 543 29,700 -780 Descending Los Angeles Center
10:04AM 35.5578 -112.2528 274° West 471 542 28,500 -840 Descending Los Angeles Center
10:05AM 35.5647 -112.3778 274° West 466 536 28,000 -660 Descending Los Angeles Center
10:06AM 35.5750 -112.5642 274° West 460 529 27,200 -900 Descending Los Angeles Center
10:07AM 35.5847 -112.7275 274° West 451 519 26,200 -1,080 Descending Los Angeles Center
10:09AM 35.6006 -113.0467 274° West 447 514 24,000 -720 Descending Los Angeles Center
10:10AM 35.6075 -113.1956 273° West 439 505 24,000  Level Los Angeles Center
10:11AM 35.6142 -113.3339 273° West 434 499 24,000  Level Los Angeles Center
10:12AM 35.6219 -113.4789 274° West 431 496 24,000 -360 Level Los Angeles Center
10:13AM 35.6444 -113.6833 278° West 434 499 23,300 -1,380 Descending Los Angeles Center
10:14AM 35.6636 -113.8233 280° West 423 487 20,900 -2,340 Descending Los Angeles Center
10:15AM 35.6836 -113.9586 280° West 407 468 18,500 -2,400 Descending Los Angeles Center
10:16AM 35.6969 -114.0489 280° West 403 464 16,900 -2,340 Descending Los Angeles Center
10:17AM 35.7058 -114.1256 278° West 395 455 15,400 -2,340 Descending Los Angeles Center
10:17AM 35.7203 -114.2267 280° West 374 430 13,600 -1,740 Descending Los Angeles Center
10:19AM 35.7503 -114.3789 284° West 345 397 12,000 -780 Descending Los Angeles Center
10:19AM 35.7992 -114.4089 North 314 361 12,000 -120 Level Los Angeles Center
10:20AM 35.8642 -114.4333 North  Level FlightAware Approximate
10:21AM 35.8956 -114.4572 338° Northwest 297 342 11,800  Level Los Angeles Center
10:22AM 35.9706 -114.4931 339° North 293 337 10,500 -960 Descending Los Angeles Center
10:23AM 36.0244 -114.5150 342° North 286 329 10,000 -420 Descending Los Angeles Center
10:24AM 36.0517 -114.6092 290° West 250 288 9,700 -780 Descending Los Angeles Center
10:25AM 36.0667 -114.6906 283° West 245 282 8,500 -1,200 Descending Los Angeles Center
10:26AM 36.0725 -114.7861 274° West 253 291 7,200 -1,200 Descending Los Angeles Center
10:27AM 36.0747 -114.8586 272° West 243 280 6,100 -1,200 Descending Los Angeles Center
10:28AM 36.0739 -114.9439 269° West 246 283 4,800 -1,260 Descending Los Angeles Center